createdAt,value
2023-06-30T00:01:38.612Z,10.05
2023-06-30T00:04:06.344Z,9.38
2023-06-30T00:06:34.489Z,9.18
2023-06-30T00:09:01.864Z,6.72
2023-06-30T00:11:28.927Z,9.35
2023-06-30T00:13:56.647Z,4.95
2023-06-30T00:16:23.983Z,8.27
2023-06-30T00:18:51.144Z,9.48
2023-06-30T00:21:18.174Z,10.07
2023-06-30T00:23:45.370Z,6.93
2023-06-30T00:26:12.391Z,9.77
2023-06-30T00:28:39.651Z,10.38
2023-06-30T00:31:07.778Z,8.38
2023-06-30T00:33:34.766Z,10.32
2023-06-30T00:36:01.894Z,9.52
2023-06-30T00:38:29.327Z,8.98
2023-06-30T00:40:56.656Z,8.60
2023-06-30T00:43:23.908Z,5.53
2023-06-30T00:45:51.013Z,8.13
2023-06-30T00:48:18.851Z,9.20
2023-06-30T00:50:47.630Z,6.53
2023-06-30T00:53:15.239Z,6.07
2023-06-30T00:55:42.339Z,5.85
2023-06-30T00:58:09.908Z,8.10
2023-06-30T01:00:37.676Z,9.43
2023-06-30T01:03:21.099Z,8.45
2023-06-30T01:05:58.805Z,10.38
2023-06-30T01:09:02.471Z,14.70
2023-06-30T01:11:31.526Z,14.18
2023-06-30T01:13:59.954Z,7.72
2023-06-30T01:16:30.737Z,8.85
2023-06-30T01:18:59.899Z,11.70
2023-06-30T01:21:30.054Z,14.20
2023-06-30T01:24:11.018Z,11.50
2023-06-30T01:26:38.965Z,9.18
2023-06-30T01:29:08.112Z,11.98
2023-06-30T01:31:35.340Z,9.65
2023-06-30T01:34:03.099Z,9.25
2023-06-30T01:36:30.217Z,10.88
2023-06-30T01:38:57.423Z,8.25
2023-06-30T01:41:24.582Z,10.73
2023-06-30T01:43:52.450Z,9.35
2023-06-30T01:46:20.025Z,11.38
2023-06-30T01:48:47.727Z,9.82
2023-06-30T01:51:16.017Z,9.25
2023-06-30T01:53:43.136Z,7.40
2023-06-30T01:56:10.099Z,13.88
2023-06-30T01:58:37.244Z,8.48
2023-06-30T02:01:04.552Z,12.98
2023-06-30T02:03:31.697Z,14.20
2023-06-30T02:05:58.767Z,19.38
2023-06-30T02:08:25.764Z,9.30
2023-06-30T02:10:52.651Z,9.30
2023-06-30T02:13:19.579Z,8.00
2023-06-30T02:15:47.014Z,10.43
2023-06-30T02:18:16.928Z,9.45
2023-06-30T02:20:44.021Z,13.25
2023-06-30T02:23:10.980Z,16.77
2023-06-30T02:25:38.100Z,9.65
2023-06-30T02:28:05.291Z,8.75
2023-06-30T02:30:32.419Z,11.05
2023-06-30T02:32:59.926Z,9.38
2023-06-30T02:35:27.056Z,9.20
2023-06-30T02:37:54.222Z,12.38
2023-06-30T02:40:21.216Z,9.10
2023-06-30T02:42:48.482Z,9.15
2023-06-30T02:45:16.051Z,10.23
2023-06-30T02:47:43.193Z,12.73
2023-06-30T02:50:11.655Z,11.90
2023-06-30T02:52:38.677Z,11.95
2023-06-30T02:55:05.984Z,6.25
2023-06-30T02:57:32.892Z,7.60
2023-06-30T02:59:59.917Z,10.70
2023-06-30T03:02:27.160Z,10.20
2023-06-30T03:04:57.204Z,8.55
2023-06-30T03:07:24.492Z,9.77
2023-06-30T03:09:51.571Z,9.68
2023-06-30T03:12:18.489Z,9.98
2023-06-30T03:14:45.630Z,9.50
2023-06-30T03:17:12.775Z,17.92
2023-06-30T03:19:40.090Z,15.27
2023-06-30T03:22:07.202Z,14.33
2023-06-30T03:24:34.145Z,10.52
2023-06-30T03:27:01.185Z,13.02
2023-06-30T03:29:28.614Z,12.68
2023-06-30T03:31:55.632Z,11.40
2023-06-30T03:34:22.640Z,13.23
2023-06-30T03:36:50.478Z,15.27
2023-06-30T03:39:19.044Z,9.48
2023-06-30T03:41:46.316Z,14.10
2023-06-30T03:44:15.013Z,9.45
2023-06-30T03:46:42.502Z,8.70
2023-06-30T03:49:09.492Z,13.70
2023-06-30T03:51:36.532Z,12.38
2023-06-30T03:54:03.733Z,8.90
2023-06-30T03:56:30.606Z,12.23
2023-06-30T03:58:57.807Z,8.90
2023-06-30T04:01:24.727Z,9.07
2023-06-30T04:03:53.222Z,13.73
2023-06-30T04:06:20.472Z,11.35
2023-06-30T04:08:47.488Z,12.50
2023-06-30T04:11:14.449Z,12.65
2023-06-30T04:13:41.356Z,14.88
2023-06-30T04:16:08.898Z,15.38
2023-06-30T04:18:36.046Z,10.35
2023-06-30T04:21:03.189Z,10.60
2023-06-30T04:23:30.261Z,9.73
2023-06-30T04:25:58.034Z,9.85
2023-06-30T04:28:25.489Z,11.52
2023-06-30T04:30:52.568Z,13.63
2023-06-30T04:33:19.721Z,12.15
2023-06-30T04:35:46.882Z,13.43
2023-06-30T04:38:14.449Z,17.05
2023-06-30T04:40:41.412Z,17.77
2023-06-30T04:43:13.606Z,27.02
2023-06-30T04:45:40.985Z,16.65
2023-06-30T04:48:08.820Z,13.93
2023-06-30T04:50:37.082Z,15.93
2023-06-30T04:53:04.169Z,16.92
2023-06-30T04:55:31.354Z,16.50
2023-06-30T04:57:59.916Z,17.55
2023-06-30T05:00:28.020Z,18.05
2023-06-30T05:02:55.386Z,17.08
2023-06-30T05:05:22.520Z,16.33
2023-06-30T05:07:49.784Z,22.52
2023-06-30T05:10:17.042Z,19.50
2023-06-30T05:12:43.953Z,19.23
2023-06-30T05:15:11.058Z,17.95
2023-06-30T05:17:38.437Z,17.10
2023-06-30T05:20:09.321Z,17.25
2023-06-30T05:22:36.871Z,15.75
2023-06-30T05:25:04.728Z,17.27
2023-06-30T05:27:32.104Z,18.17
2023-06-30T05:29:59.086Z,17.70
2023-06-30T05:32:26.552Z,18.30
2023-06-30T05:34:54.050Z,22.58
2023-06-30T05:37:21.041Z,17.88
2023-06-30T05:39:47.959Z,14.10
2023-06-30T05:42:15.054Z,18.65
2023-06-30T05:44:41.965Z,19.08
2023-06-30T05:47:09.196Z,24.05
2023-06-30T05:49:39.691Z,19.58
2023-06-30T05:52:08.452Z,20.15
2023-06-30T05:54:35.617Z,19.95
2023-06-30T05:57:02.699Z,17.15
2023-06-30T05:59:31.800Z,16.55
2023-06-30T06:01:58.835Z,17.02
2023-06-30T06:04:28.676Z,16.85
2023-06-30T06:06:56.106Z,18.67
2023-06-30T06:09:23.729Z,23.23
2023-06-30T06:11:50.980Z,15.45
2023-06-30T06:14:18.951Z,20.90
2023-06-30T06:16:47.069Z,19.98
2023-06-30T06:19:16.308Z,25.73
2023-06-30T06:21:43.610Z,19.95
2023-06-30T06:24:10.567Z,23.63
2023-06-30T06:26:37.574Z,23.42
2023-06-30T06:29:04.835Z,20.45
2023-06-30T06:31:31.860Z,20.48
2023-06-30T06:33:58.884Z,23.25
2023-06-30T06:36:26.119Z,24.40
2023-06-30T06:38:53.341Z,25.48
2023-06-30T06:41:20.204Z,25.33
2023-06-30T06:43:47.193Z,24.40
2023-06-30T06:46:14.338Z,28.83
2023-06-30T06:48:41.562Z,27.50
2023-06-30T06:51:08.976Z,34.60
2023-06-30T06:53:36.450Z,27.10
2023-06-30T06:56:05.033Z,33.15
2023-06-30T06:58:42.302Z,25.42
2023-06-30T07:01:11.469Z,23.75
2023-06-30T07:03:39.096Z,26.80
2023-06-30T07:06:09.338Z,27.92
2023-06-30T07:08:37.226Z,29.08
2023-06-30T07:11:05.600Z,25.63
2023-06-30T07:13:32.683Z,22.90
2023-06-30T07:16:00.508Z,23.02
2023-06-30T07:18:27.756Z,23.88
2023-06-30T07:20:55.955Z,37.83
2023-06-30T07:23:26.452Z,27.85
2023-06-30T07:25:54.223Z,33.60
2023-06-30T07:28:21.276Z,25.73
2023-06-30T07:30:48.702Z,25.45
2023-06-30T07:33:15.668Z,27.15
2023-06-30T07:35:42.725Z,27.42
2023-06-30T07:38:09.854Z,25.00
2023-06-30T07:43:06.659Z,33.10
2023-06-30T07:45:34.032Z,24.55
2023-06-30T07:48:01.463Z,26.30
2023-06-30T07:50:29.473Z,29.40
2023-06-30T07:52:56.369Z,33.45
2023-06-30T07:55:24.261Z,38.08
2023-06-30T07:57:52.584Z,33.80
2023-06-30T08:00:20.084Z,37.67
2023-06-30T08:02:48.135Z,29.70
2023-06-30T08:05:15.777Z,30.90
2023-06-30T08:07:50.342Z,21.67
2023-06-30T08:10:19.655Z,16.23
2023-06-30T08:12:47.160Z,18.35
2023-06-30T08:15:14.502Z,13.38
2023-06-30T08:17:52.242Z,15.95
2023-06-30T08:20:24.815Z,18.77
2023-06-30T08:22:52.424Z,16.70
2023-06-30T08:25:26.507Z,13.70
2023-06-30T08:27:53.903Z,12.55
2023-06-30T08:30:24.190Z,10.45
2023-06-30T08:32:52.584Z,16.17
2023-06-30T08:35:19.787Z,12.25
2023-06-30T08:37:50.049Z,10.10
2023-06-30T08:40:26.181Z,8.10
2023-06-30T08:42:54.717Z,13.85
2023-06-30T08:45:26.470Z,11.80
2023-06-30T08:47:56.598Z,8.95
2023-06-30T08:50:24.556Z,6.78
2023-06-30T08:52:53.137Z,7.35
2023-06-30T08:55:22.541Z,7.13
2023-06-30T08:57:50.496Z,8.68
2023-06-30T09:00:18.409Z,5.63
2023-06-30T09:02:46.022Z,4.07
2023-06-30T09:05:13.788Z,8.10
2023-06-30T09:07:47.017Z,4.45
2023-06-30T09:10:14.380Z,8.82
2023-06-30T09:12:44.482Z,6.57
2023-06-30T09:15:12.037Z,4.63
2023-06-30T09:17:39.775Z,8.32
2023-06-30T09:20:07.869Z,7.63
2023-06-30T09:22:55.223Z,8.38
2023-06-30T09:25:28.602Z,5.53
2023-06-30T09:27:57.021Z,7.47
2023-06-30T09:30:37.856Z,10.75
2023-06-30T09:33:06.415Z,7.07
2023-06-30T09:35:41.383Z,8.18
2023-06-30T09:38:16.308Z,5.82
2023-06-30T09:40:44.914Z,11.18
2023-06-30T09:43:22.866Z,5.85
2023-06-30T09:46:01.345Z,13.30
2023-06-30T09:48:40.059Z,9.43
2023-06-30T09:51:08.732Z,6.50
2023-06-30T09:53:39.507Z,5.47
2023-06-30T09:56:07.779Z,6.60
2023-06-30T09:58:37.186Z,6.35
2023-06-30T10:01:04.434Z,6.18
2023-06-30T10:03:31.721Z,5.95
2023-06-30T10:05:59.154Z,4.88
2023-06-30T10:08:28.127Z,10.45
2023-06-30T10:10:55.730Z,6.65
2023-06-30T10:13:23.348Z,5.63
2023-06-30T10:15:52.175Z,5.13
2023-06-30T10:18:20.807Z,5.60
2023-06-30T10:20:50.255Z,5.03
2023-06-30T10:23:24.049Z,4.35
2023-06-30T10:25:52.397Z,6.47
2023-06-30T10:28:20.465Z,6.03
2023-06-30T10:30:51.973Z,6.95
2023-06-30T10:33:19.221Z,6.53
2023-06-30T10:35:47.332Z,6.80
2023-06-30T10:38:15.251Z,6.00
2023-06-30T10:40:42.525Z,2.95
2023-06-30T10:43:11.483Z,4.60
2023-06-30T10:46:05.237Z,3.05
2023-06-30T10:48:32.281Z,5.50
2023-06-30T10:50:59.171Z,1.98
2023-06-30T10:53:28.269Z,3.30
2023-06-30T10:55:58.608Z,2.70
2023-06-30T10:58:28.272Z,6.75
2023-06-30T11:01:07.774Z,4.60
2023-06-30T11:03:56.753Z,6.25
2023-06-30T11:06:24.650Z,4.90
2023-06-30T11:09:12.436Z,5.70
2023-06-30T11:11:52.931Z,6.18
2023-06-30T11:14:33.482Z,8.68
2023-06-30T11:17:04.982Z,14.35
2023-06-30T11:19:32.366Z,7.20
2023-06-30T11:22:26.355Z,5.32
2023-06-30T11:24:54.023Z,6.07
2023-06-30T11:27:21.721Z,11.48
2023-06-30T11:29:55.710Z,5.28
2023-06-30T11:32:30.420Z,6.32
2023-06-30T11:35:01.225Z,5.22
2023-06-30T11:37:28.631Z,2.33
2023-06-30T11:39:58.034Z,3.83
2023-06-30T11:42:25.918Z,6.35
2023-06-30T11:44:53.134Z,2.67
2023-06-30T11:47:21.532Z,6.13
2023-06-30T11:49:49.635Z,5.00
2023-06-30T11:52:20.152Z,5.88
2023-06-30T11:54:47.410Z,6.43
2023-06-30T11:57:14.832Z,4.95
2023-06-30T11:59:42.675Z,3.22
2023-06-30T12:02:13.743Z,4.38
2023-06-30T12:04:47.779Z,8.85
2023-06-30T12:07:15.793Z,4.38
2023-06-30T12:09:43.115Z,5.30
2023-06-30T12:12:10.873Z,6.32
2023-06-30T12:14:43.479Z,6.63
2023-06-30T12:17:11.332Z,3.25
2023-06-30T12:19:39.007Z,5.20
2023-06-30T12:22:08.338Z,6.60
2023-06-30T12:24:36.482Z,5.28
2023-06-30T12:27:09.256Z,8.90
2023-06-30T12:29:37.592Z,3.88
2023-06-30T12:32:17.629Z,4.60
2023-06-30T12:34:47.136Z,3.50
2023-06-30T12:37:19.231Z,8.80
2023-06-30T12:39:46.379Z,5.22
2023-06-30T12:42:13.586Z,5.25
2023-06-30T12:44:41.174Z,4.93
2023-06-30T12:47:09.270Z,6.65
2023-06-30T12:49:39.550Z,3.40
2023-06-30T12:52:07.302Z,7.65
2023-06-30T12:54:34.276Z,4.10
2023-06-30T12:57:01.717Z,4.60
2023-06-30T12:59:28.757Z,6.95
2023-06-30T13:01:56.081Z,3.47
2023-06-30T13:04:23.168Z,6.45
2023-06-30T13:06:50.196Z,5.22
2023-06-30T13:09:17.647Z,6.68
2023-06-30T13:11:45.573Z,4.43
2023-06-30T13:14:14.565Z,6.78
2023-06-30T13:16:41.824Z,6.07
2023-06-30T13:19:09.018Z,6.45
2023-06-30T13:21:35.944Z,5.07
2023-06-30T13:24:02.793Z,4.53
2023-06-30T13:26:29.841Z,5.43
2023-06-30T13:28:56.805Z,7.53
2023-06-30T13:31:23.987Z,3.92
2023-06-30T13:33:51.396Z,5.90
2023-06-30T13:36:18.884Z,4.97
2023-06-30T13:38:47.718Z,5.90
2023-06-30T13:41:15.073Z,7.72
2023-06-30T13:43:42.278Z,6.35
2023-06-30T13:46:09.744Z,6.45
2023-06-30T13:48:39.487Z,7.00
2023-06-30T13:51:06.633Z,5.75
2023-06-30T13:53:33.595Z,7.32
2023-06-30T13:56:00.814Z,6.70
2023-06-30T13:58:27.842Z,3.45
2023-06-30T14:00:54.911Z,3.72
2023-06-30T14:03:22.085Z,6.47
2023-06-30T14:05:53.579Z,3.85
2023-06-30T14:08:21.980Z,3.72
2023-06-30T14:10:49.513Z,3.80
2023-06-30T14:13:16.694Z,9.38
2023-06-30T14:15:43.864Z,6.60
2023-06-30T14:18:11.109Z,3.78
2023-06-30T14:20:38.102Z,7.38
2023-06-30T14:23:05.141Z,3.20
2023-06-30T14:25:32.180Z,3.80
2023-06-30T14:27:59.071Z,3.03
2023-06-30T14:30:29.704Z,3.92
2023-06-30T14:32:56.955Z,3.38
2023-06-30T14:35:24.122Z,3.92
2023-06-30T14:37:51.166Z,4.20
2023-06-30T14:40:18.359Z,4.75
2023-06-30T14:42:45.665Z,3.60
2023-06-30T14:45:13.135Z,2.83
2023-06-30T14:47:41.750Z,3.97
2023-06-30T14:50:09.409Z,7.63
2023-06-30T14:52:36.541Z,5.63
2023-06-30T14:55:05.576Z,9.15
2023-06-30T14:57:32.544Z,5.60
2023-06-30T14:59:59.582Z,3.30
2023-06-30T15:02:26.650Z,3.30
2023-06-30T15:04:54.008Z,3.40
2023-06-30T15:07:21.806Z,2.55
2023-06-30T15:09:48.956Z,6.10
2023-06-30T15:12:16.426Z,4.20
2023-06-30T15:14:46.099Z,6.60
2023-06-30T15:17:12.967Z,5.22
2023-06-30T15:19:39.985Z,5.82
2023-06-30T15:22:07.167Z,9.10
2023-06-30T15:24:36.070Z,5.40
2023-06-30T15:27:04.160Z,3.42
2023-06-30T15:29:31.150Z,7.20
2023-06-30T15:31:58.224Z,3.97
2023-06-30T15:34:25.323Z,3.80
2023-06-30T15:36:52.297Z,4.57
2023-06-30T15:39:19.480Z,7.47
2023-06-30T15:41:46.676Z,6.22
2023-06-30T15:44:13.565Z,6.28
2023-06-30T15:46:41.067Z,3.40
2023-06-30T15:49:08.508Z,5.30
2023-06-30T15:51:36.175Z,8.32
2023-06-30T15:54:03.403Z,4.65
2023-06-30T15:56:30.946Z,10.40
2023-06-30T15:58:59.521Z,4.43
2023-06-30T16:01:26.917Z,5.88
2023-06-30T16:03:53.964Z,6.90
2023-06-30T16:06:21.189Z,3.22
2023-06-30T16:08:48.242Z,3.90
2023-06-30T16:11:15.561Z,3.88
2023-06-30T16:13:42.674Z,7.30
2023-06-30T16:16:13.012Z,4.28
2023-06-30T16:18:40.259Z,3.80
2023-06-30T16:21:07.524Z,3.30
2023-06-30T16:23:34.562Z,4.35
2023-06-30T16:26:01.645Z,5.55
2023-06-30T16:28:28.868Z,6.40
2023-06-30T16:30:56.074Z,6.03
2023-06-30T16:33:26.303Z,3.17
2023-06-30T16:35:53.331Z,5.38
2023-06-30T16:38:20.239Z,3.45
2023-06-30T16:40:47.401Z,8.63
2023-06-30T16:43:14.676Z,7.07
2023-06-30T16:45:41.799Z,5.38
2023-06-30T16:48:09.128Z,6.13
2023-06-30T16:50:36.201Z,8.48
2023-06-30T16:53:03.438Z,4.97
2023-06-30T16:55:30.559Z,4.45
2023-06-30T16:57:57.695Z,6.03
2023-06-30T17:00:24.746Z,4.45
2023-06-30T17:02:52.213Z,5.60
2023-06-30T17:05:19.599Z,6.55
2023-06-30T17:07:46.743Z,4.40
2023-06-30T17:10:13.923Z,4.55
2023-06-30T17:12:41.290Z,7.40
2023-06-30T17:15:10.895Z,3.70
2023-06-30T17:17:38.430Z,4.25
2023-06-30T17:20:06.326Z,3.55
2023-06-30T17:22:33.423Z,4.28
2023-06-30T17:25:04.795Z,5.60
2023-06-30T17:27:32.574Z,3.40
2023-06-30T17:30:02.122Z,4.00
2023-06-30T17:32:29.756Z,5.13
2023-06-30T17:34:56.855Z,4.57
2023-06-30T17:37:24.038Z,3.47
2023-06-30T17:39:51.293Z,5.18
2023-06-30T17:42:18.158Z,6.95
2023-06-30T17:44:45.155Z,4.85
2023-06-30T17:47:12.560Z,2.88
2023-06-30T17:49:39.733Z,5.10
2023-06-30T17:52:07.361Z,5.55
2023-06-30T17:54:34.365Z,8.13
2023-06-30T17:57:01.411Z,3.67
2023-06-30T17:59:31.824Z,6.03
2023-06-30T18:01:59.689Z,10.05
2023-06-30T18:04:26.963Z,6.05
2023-06-30T18:07:10.866Z,8.98
2023-06-30T18:09:40.700Z,6.07
2023-06-30T18:12:09.117Z,10.40
2023-06-30T18:14:37.129Z,5.85
2023-06-30T18:17:04.913Z,6.80
2023-06-30T18:19:32.559Z,4.53
2023-06-30T18:21:59.646Z,5.32
2023-06-30T18:24:26.938Z,4.45
2023-06-30T18:26:53.967Z,4.70
2023-06-30T18:29:24.863Z,6.55
2023-06-30T18:31:53.580Z,4.38
2023-06-30T18:34:21.763Z,6.45
2023-06-30T18:36:49.318Z,6.28
2023-06-30T18:39:19.504Z,7.38
2023-06-30T18:41:46.456Z,8.25
2023-06-30T18:44:13.468Z,7.97
2023-06-30T18:46:41.041Z,5.32
2023-06-30T18:49:11.733Z,5.88
2023-06-30T18:51:40.534Z,6.65
2023-06-30T18:54:08.064Z,6.25
2023-06-30T18:56:35.142Z,7.82
2023-06-30T18:59:02.875Z,7.65
2023-06-30T19:01:30.356Z,3.55
2023-06-30T19:03:57.784Z,2.65
2023-06-30T19:06:26.679Z,6.75
2023-06-30T19:08:54.742Z,7.07
2023-06-30T19:11:22.909Z,9.95
2023-06-30T19:13:50.407Z,9.45
2023-06-30T19:16:18.092Z,4.43
2023-06-30T19:18:45.178Z,6.28
2023-06-30T19:21:12.140Z,7.53
2023-06-30T19:23:41.824Z,6.80
2023-06-30T19:26:09.399Z,7.25
2023-06-30T19:28:36.441Z,6.13
2023-06-30T19:31:03.728Z,9.23
2023-06-30T19:33:31.772Z,4.05
2023-06-30T19:35:59.582Z,4.60
2023-06-30T19:38:27.881Z,4.80
2023-06-30T19:40:55.825Z,5.07
2023-06-30T19:43:23.369Z,4.93
2023-06-30T19:45:51.200Z,12.80
2023-06-30T19:48:20.143Z,5.47
2023-06-30T19:50:47.381Z,9.38
2023-06-30T19:53:14.541Z,10.70
2023-06-30T19:55:41.620Z,8.70
2023-06-30T19:58:10.316Z,7.05
2023-06-30T20:00:38.460Z,6.22
2023-06-30T20:03:05.831Z,9.30
2023-06-30T20:05:33.123Z,8.07
2023-06-30T20:08:00.208Z,8.45
2023-06-30T20:10:27.737Z,5.93
2023-06-30T20:12:54.874Z,8.85
2023-06-30T20:15:22.040Z,5.95
2023-06-30T20:17:48.949Z,6.65
2023-06-30T20:20:16.038Z,11.50
2023-06-30T20:22:43.536Z,7.13
2023-06-30T20:25:11.406Z,8.60
2023-06-30T20:27:39.712Z,8.18
2023-06-30T20:30:09.098Z,7.93
2023-06-30T20:32:36.578Z,5.38
2023-06-30T20:35:03.818Z,8.55
2023-06-30T20:37:31.090Z,7.10
2023-06-30T20:39:58.114Z,9.07
2023-06-30T20:42:25.070Z,8.30
2023-06-30T20:44:51.994Z,9.60
2023-06-30T20:47:19.149Z,6.22
2023-06-30T20:49:46.504Z,8.75
2023-06-30T20:52:18.958Z,6.32
2023-06-30T20:54:46.330Z,7.20
2023-06-30T20:57:13.434Z,9.35
2023-06-30T20:59:40.853Z,8.88
2023-06-30T21:02:08.162Z,6.03
2023-06-30T21:04:35.582Z,11.27
2023-06-30T21:07:02.854Z,7.82
2023-06-30T21:09:30.017Z,10.40
2023-06-30T21:11:57.228Z,11.43
2023-06-30T21:14:24.802Z,8.55
2023-06-30T21:16:51.972Z,6.20
2023-06-30T21:19:19.053Z,8.27
2023-06-30T21:21:46.257Z,11.48
2023-06-30T21:24:13.489Z,8.13
2023-06-30T21:26:43.095Z,7.03
2023-06-30T21:29:12.426Z,11.95
2023-06-30T21:31:39.685Z,7.80
2023-06-30T21:34:06.848Z,7.47
2023-06-30T21:36:36.553Z,8.93
2023-06-30T21:39:05.390Z,9.00
2023-06-30T21:41:32.516Z,9.88
2023-06-30T21:43:59.695Z,10.23
2023-06-30T21:46:26.705Z,6.53
2023-06-30T21:48:54.018Z,9.55
2023-06-30T21:51:21.118Z,11.52
2023-06-30T21:53:48.124Z,8.55
2023-06-30T21:56:15.035Z,11.70
2023-06-30T21:58:42.047Z,9.65
2023-06-30T22:01:09.155Z,11.02
2023-06-30T22:03:36.586Z,4.43
2023-06-30T22:06:03.903Z,9.10
2023-06-30T22:08:31.309Z,9.90
2023-06-30T22:10:59.282Z,10.35
2023-06-30T22:13:26.527Z,5.65
2023-06-30T22:15:53.727Z,7.35
2023-06-30T22:18:20.985Z,9.80
2023-06-30T22:20:48.187Z,6.70
2023-06-30T22:23:15.420Z,6.28
2023-06-30T22:25:42.535Z,7.95
2023-06-30T22:28:09.677Z,8.77
2023-06-30T22:30:36.746Z,8.13
2023-06-30T22:33:04.408Z,7.45
2023-06-30T22:35:31.548Z,7.38
2023-06-30T22:37:58.506Z,8.10
2023-06-30T22:40:25.708Z,12.55
2023-06-30T22:42:52.628Z,9.23
2023-06-30T22:45:19.802Z,7.35
2023-06-30T22:47:46.909Z,10.23
2023-06-30T22:50:14.039Z,8.15
2023-06-30T22:52:41.300Z,11.43
2023-06-30T22:55:09.294Z,9.32
2023-06-30T22:57:36.766Z,12.85
2023-06-30T23:00:05.721Z,9.75
2023-06-30T23:02:33.115Z,11.25
2023-06-30T23:05:00.155Z,12.77
2023-06-30T23:07:27.343Z,13.07
2023-06-30T23:09:54.343Z,12.23
2023-06-30T23:12:21.437Z,7.15
2023-06-30T23:14:48.545Z,13.15
2023-06-30T23:17:18.438Z,10.00
2023-06-30T23:19:49.233Z,10.98
2023-06-30T23:22:17.581Z,10.38
2023-06-30T23:24:48.220Z,9.10
2023-06-30T23:27:19.498Z,7.15
2023-06-30T23:29:50.530Z,8.00
2023-06-30T23:32:22.150Z,6.75
2023-06-30T23:34:49.489Z,6.68
2023-06-30T23:37:18.686Z,10.23
2023-06-30T23:39:51.461Z,8.88
2023-06-30T23:42:19.090Z,6.70
2023-06-30T23:44:46.347Z,6.43
2023-06-30T23:47:16.204Z,5.72
2023-06-30T23:49:43.822Z,7.18
2023-06-30T23:52:11.252Z,9.50
2023-06-30T23:54:38.702Z,6.78
2023-06-30T23:57:06.280Z,5.55
2023-06-30T23:59:33.434Z,7.22
